Farmersville's Hourly Summary for Friday, March 17, 2017
Hour Temp
(f)
RH
(%)
Solar Rad.
(MJ/m2)
Rainfall
(in)
Wind
(mph)
3/17/2017 12:00 AM 65 79 0 0 5.86
3/17/2017 1:00 AM 64 83 0 0 5.98
3/17/2017 2:00 AM 63 86 0 0 5.07
3/17/2017 3:00 AM 63 93 0 0 5.44
3/17/2017 4:00 AM 64 85 0 0 7
3/17/2017 5:00 AM 65 81 0 0 7.18
3/17/2017 6:00 AM 66 81 0 0 7.73
3/17/2017 7:00 AM 65 81 0 0 6.92
3/17/2017 8:00 AM 66 76 0.01 0 8.08
3/17/2017 9:00 AM 66 76 0.22 0 6.15
3/17/2017 10:00 AM 67 76 0.61 0 7.54
3/17/2017 11:00 AM 69 73 0.82 0 9.67
3/17/2017 12:00 PM 70 71 0.82 0 9.4
3/17/2017 1:00 PM 71 68 1.2 0 9.5
3/17/2017 2:00 PM 71 69 1.23 0 10.53
3/17/2017 3:00 PM 72 68 1.41 0 10.01
3/17/2017 4:00 PM 71 70 0.9 0 8.65
3/17/2017 5:00 PM 72 68 0.83 0 8.36
3/17/2017 6:00 PM 72 68 0.46 0 7.29
3/17/2017 7:00 PM 73 64 0.2 0 4.53
3/17/2017 8:00 PM 72 64 0.02 0 0.51
3/17/2017 9:00 PM 71 68 0 0 0.07
3/17/2017 10:00 PM 70 70 0 0 0.03
3/17/2017 11:00 PM 69 72 0 0 0
Data Summary 68 74 8.73 0.00 6.31